createdAt,value
2019-04-16T00:00:43.405Z,6.77
2019-04-16T00:01:45.303Z,6.77
2019-04-16T00:02:43.495Z,6.76
2019-04-16T00:03:43.585Z,6.79
2019-04-16T00:04:43.674Z,6.69
2019-04-16T00:05:43.761Z,6.71
2019-04-16T00:06:43.850Z,6.68
2019-04-16T00:07:43.933Z,6.69
2019-04-16T00:08:44.027Z,6.63
2019-04-16T00:09:44.116Z,6.71
2019-04-16T00:10:44.222Z,6.61
2019-04-16T00:11:44.309Z,6.63
2019-04-16T00:12:44.399Z,6.71
2019-04-16T00:13:44.486Z,6.66
2019-04-16T00:14:44.573Z,6.62
2019-04-16T00:15:44.663Z,6.62
2019-04-16T00:16:45.319Z,6.56
2019-04-16T00:17:47.254Z,6.62
2019-04-16T00:18:56.762Z,6.50
2019-04-16T00:19:45.036Z,6.51
2019-04-16T00:20:45.130Z,6.50
2019-04-16T00:21:45.214Z,6.50
2019-04-16T00:22:45.303Z,6.47
2019-04-16T00:23:46.803Z,6.56
2019-04-16T00:24:45.476Z,6.40
2019-04-16T00:25:45.561Z,6.40
2019-04-16T00:26:45.674Z,6.43
2019-04-16T00:27:45.741Z,6.36
2019-04-16T00:28:45.830Z,6.41
2019-04-16T00:29:45.919Z,6.40
2019-04-16T00:30:46.006Z,6.41
2019-04-16T00:31:46.096Z,6.41
2019-04-16T00:32:46.186Z,6.35
2019-04-16T00:33:46.276Z,6.32
2019-04-16T00:34:46.363Z,6.26
2019-04-16T00:35:47.189Z,6.26
2019-04-16T00:36:48.812Z,6.28
2019-04-16T00:37:49.159Z,6.26
2019-04-16T00:38:46.713Z,6.21
2019-04-16T00:39:46.802Z,6.11
2019-04-16T00:40:46.893Z,6.16
2019-04-16T00:41:46.982Z,6.18
2019-04-16T00:42:47.066Z,6.09
2019-04-16T00:43:47.160Z,6.11
2019-04-16T00:44:47.251Z,6.07
2019-04-16T00:45:47.338Z,6.03
2019-04-16T00:46:47.429Z,6.10
2019-04-16T00:47:47.992Z,6.04
2019-04-16T00:48:47.611Z,6.09
2019-04-16T00:49:47.709Z,6.00
2019-04-16T00:50:47.798Z,6.00
2019-04-16T00:51:47.892Z,5.98
2019-04-16T00:52:48.032Z,5.98
2019-04-16T00:53:48.071Z,6.03
2019-04-16T00:54:48.153Z,6.01
2019-04-16T00:55:48.243Z,5.98
2019-04-16T00:56:48.330Z,5.96
2019-04-16T00:57:49.242Z,5.93
2019-04-16T00:58:49.447Z,5.88
2019-04-16T00:59:48.602Z,5.92
2019-04-16T01:00:48.709Z,5.89
2019-04-16T01:01:48.774Z,5.83
2019-04-16T01:02:48.862Z,5.89
2019-04-16T01:03:48.949Z,5.92
2019-04-16T01:04:49.044Z,5.91
2019-04-16T01:05:49.129Z,5.77
2019-04-16T01:06:49.215Z,5.74
2019-04-16T01:07:49.303Z,5.77
2019-04-16T01:08:54.983Z,5.92
2019-04-16T01:09:49.478Z,5.82
2019-04-16T01:10:49.564Z,5.77
2019-04-16T01:11:49.757Z,5.77
2019-04-16T01:12:49.745Z,5.78
2019-04-16T01:13:49.836Z,5.81
2019-04-16T01:14:49.922Z,5.74
2019-04-16T01:15:49.994Z,5.78
2019-04-16T01:16:50.097Z,5.78
2019-04-16T01:17:50.170Z,5.85
2019-04-16T01:18:50.261Z,5.73
2019-04-16T01:19:50.346Z,5.81
2019-04-16T01:20:50.451Z,5.71
2019-04-16T01:21:50.513Z,5.70
2019-04-16T01:22:50.607Z,5.63
2019-04-16T01:23:50.694Z,5.71
2019-04-16T01:24:52.538Z,5.60
2019-04-16T01:25:55.364Z,5.57
2019-04-16T01:26:50.978Z,5.66
2019-04-16T01:27:51.067Z,5.57
2019-04-16T01:28:51.156Z,5.56
2019-04-16T01:29:51.239Z,5.60
2019-04-16T01:30:51.330Z,5.60
2019-04-16T01:31:51.420Z,5.49
2019-04-16T01:32:51.507Z,5.59
2019-04-16T01:33:51.600Z,5.56
2019-04-16T01:34:51.689Z,5.55
2019-04-16T01:35:52.740Z,5.57
2019-04-16T01:36:54.383Z,5.53
2019-04-16T01:37:56.494Z,5.52
2019-04-16T01:38:52.044Z,5.50
2019-04-16T01:39:52.128Z,5.52
2019-04-16T01:40:52.216Z,5.53
2019-04-16T01:41:53.271Z,5.46
2019-04-16T01:42:54.586Z,5.50
2019-04-16T01:43:54.291Z,5.48
2019-04-16T01:44:52.573Z,5.50
2019-04-16T01:45:52.651Z,5.49
2019-04-16T01:46:52.744Z,5.48
2019-04-16T01:47:52.832Z,5.50
2019-04-16T01:48:52.920Z,5.55
2019-04-16T01:49:53.012Z,5.48
2019-04-16T01:50:53.101Z,5.49
2019-04-16T01:51:53.190Z,5.49
2019-04-16T01:52:53.276Z,5.43
2019-04-16T01:53:53.365Z,5.49
2019-04-16T01:54:54.768Z,5.41
2019-04-16T01:55:56.752Z,5.28
2019-04-16T01:56:53.623Z,5.31
2019-04-16T01:57:53.712Z,5.30
2019-04-16T01:58:53.802Z,5.31
2019-04-16T01:59:53.900Z,5.27
2019-04-16T02:00:53.980Z,5.31
2019-04-16T02:01:54.067Z,5.32
2019-04-16T02:02:54.163Z,5.28
2019-04-16T02:03:54.252Z,5.20
2019-04-16T02:04:54.340Z,5.16
2019-04-16T02:05:54.840Z,5.25
2019-04-16T02:06:57.327Z,5.22
2019-04-16T02:07:56.344Z,5.17
2019-04-16T02:08:54.693Z,5.25
2019-04-16T02:09:54.786Z,5.17
2019-04-16T02:10:54.872Z,5.12
2019-04-16T02:11:54.966Z,5.16
2019-04-16T02:12:55.049Z,5.20
2019-04-16T02:13:55.135Z,5.16
2019-04-16T02:14:55.220Z,5.16
2019-04-16T02:15:55.317Z,5.28
2019-04-16T02:16:56.117Z,5.17
2019-04-16T02:17:58.682Z,5.20
2019-04-16T02:18:55.580Z,5.12
2019-04-16T02:19:55.671Z,5.10
2019-04-16T02:20:55.760Z,5.12
2019-04-16T02:21:55.852Z,5.07
2019-04-16T02:22:55.936Z,5.09
2019-04-16T02:23:56.024Z,5.10
2019-04-16T02:24:56.117Z,5.05
2019-04-16T02:25:56.208Z,4.99
2019-04-16T02:26:56.298Z,5.05
2019-04-16T02:27:57.009Z,4.94
2019-04-16T02:28:58.875Z,5.01
2019-04-16T02:29:58.596Z,4.94
2019-04-16T02:30:56.709Z,4.89
2019-04-16T02:31:56.774Z,4.92
2019-04-16T02:32:56.856Z,4.94
2019-04-16T02:33:56.943Z,4.96
2019-04-16T02:34:57.033Z,4.84
2019-04-16T02:35:57.125Z,4.94
2019-04-16T02:37:00.497Z,4.96
2019-04-16T02:37:57.299Z,4.91
2019-04-16T02:38:57.392Z,4.98
2019-04-16T02:39:57.479Z,4.86
2019-04-16T02:40:57.567Z,4.91
2019-04-16T02:41:58.580Z,4.95
2019-04-16T02:43:03.942Z,4.94
2019-04-16T02:43:57.831Z,4.89
2019-04-16T02:44:57.921Z,4.88
2019-04-16T02:45:58.781Z,4.84
2019-04-16T02:47:05.351Z,4.84
2019-04-16T02:47:58.189Z,4.77
2019-04-16T02:48:58.275Z,4.79
2019-04-16T02:49:58.368Z,4.79
2019-04-16T02:51:05.467Z,4.76
2019-04-16T02:51:58.565Z,4.73
2019-04-16T02:52:58.633Z,4.62
2019-04-16T02:54:00.019Z,4.64
2019-04-16T02:54:58.834Z,4.69
2019-04-16T02:55:58.919Z,4.69
2019-04-16T02:56:59.006Z,4.65
2019-04-16T02:57:59.993Z,4.62
2019-04-16T02:58:59.184Z,4.54
2019-04-16T02:59:59.272Z,4.67
2019-04-16T03:00:59.392Z,4.57
2019-04-16T03:01:59.446Z,4.52
2019-04-16T03:02:59.533Z,4.62
2019-04-16T03:03:59.626Z,4.47
2019-04-16T03:04:59.706Z,4.64
2019-04-16T03:06:01.034Z,4.69
2019-04-16T03:07:02.676Z,4.55
2019-04-16T03:08:01.540Z,4.64
2019-04-16T03:09:00.045Z,4.65
2019-04-16T03:10:01.742Z,4.62
2019-04-16T03:11:00.231Z,4.57
2019-04-16T03:12:00.322Z,4.61
2019-04-16T03:13:00.424Z,4.59
2019-04-16T03:14:00.522Z,4.59
2019-04-16T03:15:01.201Z,4.58
2019-04-16T03:16:02.791Z,4.54
2019-04-16T03:17:00.790Z,4.50
2019-04-16T03:18:00.866Z,4.58
2019-04-16T03:19:00.955Z,4.44
2019-04-16T03:20:01.038Z,4.50
2019-04-16T03:21:01.131Z,4.46
2019-04-16T03:22:02.244Z,4.44
2019-04-16T03:23:05.126Z,4.52
2019-04-16T03:24:01.397Z,4.43
2019-04-16T03:25:01.488Z,4.42
2019-04-16T03:26:01.572Z,4.44
2019-04-16T03:27:04.497Z,4.34
2019-04-16T03:28:01.752Z,4.37
2019-04-16T03:29:01.839Z,4.37
2019-04-16T03:30:03.481Z,4.25
2019-04-16T03:31:06.878Z,4.24
2019-04-16T03:32:02.100Z,4.26
2019-04-16T03:33:10.313Z,4.15
2019-04-16T03:34:02.276Z,4.26
2019-04-16T03:35:02.356Z,3.89
2019-04-16T03:36:02.446Z,3.85
2019-04-16T03:37:03.040Z,3.75
2019-04-16T03:38:05.081Z,3.82
2019-04-16T03:39:02.724Z,3.85
2019-04-16T03:40:15.385Z,3.90
2019-04-16T03:41:02.876Z,3.96
2019-04-16T03:42:02.961Z,3.90
2019-04-16T03:43:04.478Z,4.00
2019-04-16T03:44:04.220Z,4.00
2019-04-16T03:45:07.978Z,4.04
2019-04-16T03:46:03.313Z,4.03
2019-04-16T03:47:03.403Z,4.00
2019-04-16T03:48:03.489Z,3.97
2019-04-16T03:49:03.574Z,3.98
2019-04-16T03:50:03.680Z,4.04
2019-04-16T03:51:04.783Z,4.01
2019-04-16T03:52:04.832Z,4.03
2019-04-16T03:53:03.923Z,4.12
2019-04-16T03:54:05.010Z,4.08
2019-04-16T03:55:04.103Z,4.06
2019-04-16T03:56:04.194Z,4.10
2019-04-16T03:57:04.277Z,4.00
2019-04-16T03:58:06.270Z,4.06
2019-04-16T03:59:04.930Z,4.08
2019-04-16T04:00:05.105Z,4.07
2019-04-16T04:01:04.783Z,4.03
2019-04-16T04:02:04.901Z,4.08
2019-04-16T04:03:04.793Z,4.08
2019-04-16T04:04:04.913Z,4.14
2019-04-16T04:05:06.880Z,4.07
2019-04-16T04:06:06.872Z,3.94
2019-04-16T04:07:05.501Z,4.04
2019-04-16T04:08:05.553Z,4.04
2019-04-16T04:09:05.521Z,3.97
2019-04-16T04:10:05.417Z,4.15
2019-04-16T04:11:09.170Z,4.01
2019-04-16T04:12:05.815Z,4.06
2019-04-16T04:13:05.858Z,3.97
2019-04-16T04:14:05.769Z,4.06
2019-04-16T04:15:05.857Z,3.96
2019-04-16T04:16:06.057Z,3.94
2019-04-16T04:17:07.317Z,3.78
2019-04-16T04:18:07.836Z,3.54
2019-04-16T04:19:06.210Z,3.70
2019-04-16T04:20:06.304Z,3.75
2019-04-16T04:21:06.392Z,3.62
2019-04-16T04:22:06.478Z,3.71
2019-04-16T04:23:06.574Z,3.65
2019-04-16T04:24:06.655Z,3.78
2019-04-16T04:25:06.745Z,3.71
2019-04-16T04:26:08.922Z,3.71
2019-04-16T04:27:06.921Z,3.83
2019-04-16T04:28:07.010Z,3.72
2019-04-16T04:29:07.093Z,3.85
2019-04-16T04:30:07.183Z,3.86
2019-04-16T04:31:07.271Z,3.85
2019-04-16T04:32:07.360Z,3.89
2019-04-16T04:33:08.916Z,3.90
2019-04-16T04:34:09.992Z,3.94
2019-04-16T04:35:07.611Z,3.96
2019-04-16T04:36:07.715Z,3.94
2019-04-16T04:37:07.808Z,3.85
2019-04-16T04:38:07.900Z,3.94
2019-04-16T04:39:09.923Z,3.86
2019-04-16T04:40:08.080Z,3.89
2019-04-16T04:41:08.234Z,3.90
2019-04-16T04:42:08.261Z,3.98
2019-04-16T04:43:08.347Z,3.94
2019-04-16T04:44:08.436Z,3.92
2019-04-16T04:45:09.986Z,3.85
2019-04-16T04:46:12.866Z,3.79
2019-04-16T04:47:08.703Z,3.80
2019-04-16T04:48:11.184Z,3.86
2019-04-16T04:49:09.178Z,3.75
2019-04-16T04:50:08.963Z,3.85
2019-04-16T04:51:09.134Z,3.90
2019-04-16T04:52:13.560Z,3.86
2019-04-16T04:53:09.233Z,3.78
2019-04-16T04:54:09.416Z,3.67
2019-04-16T04:55:09.516Z,3.68
2019-04-16T04:56:09.661Z,3.68
2019-04-16T04:57:09.577Z,3.78
2019-04-16T04:58:09.660Z,3.70
2019-04-16T04:59:09.752Z,3.76
2019-04-16T05:00:09.861Z,3.72
2019-04-16T05:01:13.608Z,3.70
2019-04-16T05:02:10.535Z,3.79
2019-04-16T05:03:12.455Z,3.86
2019-04-16T05:04:10.192Z,3.96
2019-04-16T05:05:10.278Z,3.89
2019-04-16T05:06:10.366Z,3.86
2019-04-16T05:07:10.455Z,3.89
2019-04-16T05:08:10.562Z,3.90
2019-04-16T05:09:10.653Z,3.94
2019-04-16T05:10:10.740Z,3.88
2019-04-16T05:11:12.565Z,3.97
2019-04-16T05:12:10.965Z,3.98
2019-04-16T05:13:11.180Z,4.01
2019-04-16T05:14:11.118Z,3.97
2019-04-16T05:15:11.220Z,3.90
2019-04-16T05:16:11.524Z,3.96
2019-04-16T05:17:11.478Z,3.89
2019-04-16T05:18:11.619Z,4.00
2019-04-16T05:19:14.892Z,4.00
2019-04-16T05:20:14.826Z,3.97
2019-04-16T05:21:11.814Z,4.03
2019-04-16T05:22:11.826Z,4.01
2019-04-16T05:23:11.952Z,4.03
2019-04-16T05:24:12.000Z,4.08
2019-04-16T05:25:12.088Z,3.98
2019-04-16T05:26:12.184Z,4.00
2019-04-16T05:27:12.260Z,4.10
2019-04-16T05:28:13.312Z,4.10
2019-04-16T05:29:16.287Z,4.12
2019-04-16T05:30:12.531Z,4.16
2019-04-16T05:31:12.614Z,4.21
2019-04-16T05:32:12.708Z,4.21
2019-04-16T05:33:12.811Z,4.29
2019-04-16T05:34:12.904Z,4.15
2019-04-16T05:35:12.985Z,4.24
2019-04-16T05:36:14.212Z,4.22
2019-04-16T05:37:13.155Z,4.21
2019-04-16T05:38:13.256Z,4.28
2019-04-16T05:39:13.341Z,4.29
2019-04-16T05:40:13.430Z,4.25
2019-04-16T05:41:17.537Z,4.34
2019-04-16T05:42:13.616Z,4.39
2019-04-16T05:43:13.698Z,4.37
2019-04-16T05:44:13.783Z,4.43
2019-04-16T05:45:13.868Z,4.39
2019-04-16T05:46:13.952Z,4.44
2019-04-16T05:47:16.815Z,4.52
2019-04-16T05:48:14.127Z,4.57
2019-04-16T05:49:14.212Z,4.57
2019-04-16T05:50:14.371Z,4.50
2019-04-16T05:51:14.436Z,4.51
2019-04-16T05:52:14.560Z,4.46
2019-04-16T05:53:14.562Z,4.46
2019-04-16T05:54:14.655Z,4.58
2019-04-16T05:55:17.942Z,4.69
2019-04-16T05:56:14.834Z,4.62
2019-04-16T05:57:15.184Z,4.64
2019-04-16T05:58:15.001Z,4.67
2019-04-16T05:59:15.128Z,4.76
2019-04-16T06:00:15.180Z,4.86
2019-04-16T06:01:15.461Z,4.94
2019-04-16T06:02:18.808Z,5.12
2019-04-16T06:03:15.486Z,5.45
2019-04-16T06:04:15.526Z,5.56
2019-04-16T06:05:15.613Z,5.66
2019-04-16T06:06:15.697Z,5.78
2019-04-16T06:07:15.791Z,5.91
2019-04-16T06:08:15.889Z,6.18
2019-04-16T06:09:15.974Z,6.63
2019-04-16T06:10:18.138Z,6.91
2019-04-16T06:11:27.564Z,7.22
2019-04-16T06:12:16.261Z,7.35
2019-04-16T06:13:16.344Z,7.52
2019-04-16T06:14:17.929Z,7.81
2019-04-16T06:15:21.338Z,8.20
2019-04-16T06:16:16.615Z,8.47
2019-04-16T06:17:16.942Z,8.93
2019-04-16T06:18:18.307Z,9.25
2019-04-16T06:19:16.881Z,9.49
2019-04-16T06:20:20.744Z,9.78
2019-04-16T06:21:17.061Z,10.09
2019-04-16T06:22:17.156Z,10.34
2019-04-16T06:23:17.236Z,10.56
2019-04-16T06:24:17.325Z,10.77
2019-04-16T06:25:17.417Z,11.09
2019-04-16T06:26:17.625Z,11.27
2019-04-16T06:27:17.603Z,11.50
2019-04-16T06:28:17.704Z,11.62
2019-04-16T06:29:17.784Z,11.83
2019-04-16T06:30:17.878Z,12.05
2019-04-16T06:31:17.971Z,12.08
2019-04-16T06:32:18.072Z,12.20
2019-04-16T06:33:18.156Z,12.34
2019-04-16T06:34:18.245Z,12.51
2019-04-16T06:35:18.337Z,12.67
2019-04-16T06:36:18.483Z,12.99
2019-04-16T06:37:21.114Z,13.14
2019-04-16T06:38:18.631Z,12.96
2019-04-16T06:39:18.708Z,13.12
2019-04-16T06:40:18.802Z,13.27
2019-04-16T06:41:18.888Z,13.44
2019-04-16T06:42:22.329Z,13.54
2019-04-16T06:43:19.077Z,13.55
2019-04-16T06:44:19.173Z,13.55
2019-04-16T06:45:19.265Z,13.27
2019-04-16T06:46:19.358Z,13.22
2019-04-16T06:47:19.462Z,13.40
2019-04-16T06:48:19.550Z,13.52
2019-04-16T06:49:19.644Z,13.76
2019-04-16T06:50:31.197Z,13.84
2019-04-16T06:51:19.982Z,13.99
2019-04-16T06:52:19.935Z,13.89
2019-04-16T06:53:23.862Z,13.71
2019-04-16T06:54:20.125Z,13.43
2019-04-16T06:55:20.216Z,13.44
2019-04-16T06:56:20.884Z,13.59
2019-04-16T06:57:20.411Z,13.69
2019-04-16T06:58:20.506Z,13.77
2019-04-16T06:59:20.600Z,13.94
2019-04-16T07:00:20.698Z,14.07
2019-04-16T07:01:22.968Z,14.16
2019-04-16T07:02:24.013Z,14.16
2019-04-16T07:03:25.805Z,14.35
2019-04-16T07:04:21.077Z,13.95
2019-04-16T07:05:21.178Z,13.74
2019-04-16T07:06:21.578Z,13.70
2019-04-16T07:07:22.405Z,13.46
2019-04-16T07:08:21.464Z,13.15
2019-04-16T07:09:25.626Z,12.79
2019-04-16T07:10:21.661Z,12.89
2019-04-16T07:11:21.744Z,12.92
2019-04-16T07:12:21.846Z,12.95
2019-04-16T07:13:21.946Z,12.97
2019-04-16T07:14:22.041Z,12.51
2019-04-16T07:15:23.732Z,12.60
2019-04-16T07:16:22.476Z,12.52
2019-04-16T07:17:22.524Z,12.64
2019-04-16T07:18:22.583Z,12.70
2019-04-16T07:19:22.515Z,12.62
2019-04-16T07:20:22.611Z,12.77
2019-04-16T07:21:22.713Z,12.89
2019-04-16T07:22:22.807Z,12.93
2019-04-16T07:23:24.755Z,12.78
2019-04-16T07:24:23.782Z,12.79
2019-04-16T07:25:26.802Z,12.66
2019-04-16T07:26:23.178Z,12.44
2019-04-16T07:27:23.292Z,12.49
2019-04-16T07:28:25.673Z,12.54
2019-04-16T07:29:23.474Z,12.42
2019-04-16T07:30:23.624Z,11.99
2019-04-16T07:31:33.300Z,11.94
2019-04-16T07:32:23.834Z,12.05
2019-04-16T07:33:23.831Z,12.21
2019-04-16T07:34:23.941Z,12.19
2019-04-16T07:35:27.019Z,12.13
2019-04-16T07:36:26.751Z,12.31
2019-04-16T07:37:24.230Z,12.38
2019-04-16T07:38:24.327Z,12.44
2019-04-16T07:39:31.207Z,12.31
2019-04-16T07:40:24.510Z,11.89
2019-04-16T07:41:24.604Z,12.02
2019-04-16T07:42:26.289Z,12.19
2019-04-16T07:43:24.796Z,12.29
2019-04-16T07:44:24.888Z,12.41
2019-04-16T07:45:24.984Z,12.39
2019-04-16T07:46:25.078Z,12.49
2019-04-16T07:47:25.169Z,12.52
2019-04-16T07:48:25.265Z,12.62
2019-04-16T07:49:26.383Z,12.62
2019-04-16T07:50:25.456Z,12.70
2019-04-16T07:51:25.552Z,12.71
2019-04-16T07:52:25.647Z,12.84
2019-04-16T07:53:25.740Z,12.92
2019-04-16T07:54:25.835Z,12.99
2019-04-16T07:55:26.663Z,13.09
2019-04-16T07:56:26.026Z,12.89
2019-04-16T07:57:26.117Z,12.92
2019-04-16T07:58:26.206Z,13.00
2019-04-16T07:59:26.319Z,13.12
2019-04-16T08:00:26.461Z,13.17
2019-04-16T08:01:26.491Z,13.27
2019-04-16T08:02:26.587Z,13.37
2019-04-16T08:03:27.539Z,13.29
2019-04-16T08:04:29.298Z,13.15
2019-04-16T08:05:28.040Z,13.06
2019-04-16T08:06:26.967Z,12.93
2019-04-16T08:07:27.060Z,12.95
2019-04-16T08:08:27.155Z,12.95
2019-04-16T08:09:29.840Z,12.92
2019-04-16T08:10:27.354Z,13.00
2019-04-16T08:11:27.441Z,13.12
2019-04-16T08:12:30.501Z,13.12
2019-04-16T08:13:27.634Z,12.93
2019-04-16T08:14:27.722Z,12.84
2019-04-16T08:15:27.823Z,12.92
2019-04-16T08:16:27.912Z,12.92
2019-04-16T08:17:28.006Z,12.84
2019-04-16T08:18:28.101Z,12.87
2019-04-16T08:19:36.627Z,12.79
2019-04-16T08:20:28.294Z,12.85
2019-04-16T08:21:28.385Z,13.02
2019-04-16T08:22:28.564Z,13.15
2019-04-16T08:23:28.573Z,13.36
2019-04-16T08:24:28.668Z,13.40
2019-04-16T08:25:33.543Z,13.33
2019-04-16T08:26:28.864Z,13.46
2019-04-16T08:27:28.952Z,13.55
2019-04-16T08:28:29.048Z,13.65
2019-04-16T08:29:29.135Z,13.77
2019-04-16T08:30:34.651Z,13.81
2019-04-16T08:31:29.326Z,13.92
2019-04-16T08:32:29.420Z,14.04
2019-04-16T08:33:29.514Z,14.07
2019-04-16T08:34:29.606Z,14.13
2019-04-16T08:35:29.701Z,13.99
2019-04-16T08:36:29.796Z,13.98
2019-04-16T08:37:29.890Z,13.87
2019-04-16T08:38:34.110Z,13.70
2019-04-16T08:39:30.078Z,13.59
2019-04-16T08:40:30.177Z,13.74
2019-04-16T08:41:30.261Z,13.74
2019-04-16T08:42:43.678Z,13.84
2019-04-16T08:43:30.579Z,13.67
2019-04-16T08:44:35.452Z,13.37
2019-04-16T08:45:30.641Z,13.54
2019-04-16T08:46:30.732Z,13.61
2019-04-16T08:47:30.823Z,13.71
2019-04-16T08:48:30.916Z,13.59
2019-04-16T08:49:31.006Z,13.44
2019-04-16T08:50:31.096Z,13.46
2019-04-16T08:51:34.345Z,13.55
2019-04-16T08:52:31.286Z,13.58
2019-04-16T08:53:31.381Z,13.81
2019-04-16T08:54:31.475Z,13.83
2019-04-16T08:55:31.579Z,13.99
2019-04-16T08:56:31.660Z,13.95
2019-04-16T08:57:32.806Z,13.99
2019-04-16T08:58:31.835Z,14.10
2019-04-16T08:59:31.947Z,14.12
2019-04-16T09:00:32.008Z,14.04
2019-04-16T09:01:32.108Z,13.88
2019-04-16T09:02:32.201Z,13.92
2019-04-16T09:03:32.294Z,14.14
2019-04-16T09:04:34.665Z,14.09
2019-04-16T09:05:32.480Z,14.04
2019-04-16T09:06:32.587Z,14.31
2019-04-16T09:07:32.675Z,14.42
2019-04-16T09:08:32.767Z,14.50
2019-04-16T09:09:32.859Z,14.52
2019-04-16T09:10:32.963Z,14.62
2019-04-16T09:11:35.435Z,14.69
2019-04-16T09:12:33.164Z,14.61
2019-04-16T09:13:33.234Z,14.56
2019-04-16T09:14:33.326Z,14.61
2019-04-16T09:15:33.423Z,14.64
2019-04-16T09:16:33.514Z,14.75
2019-04-16T09:17:33.613Z,14.88
2019-04-16T09:18:33.706Z,14.99
2019-04-16T09:19:33.798Z,15.08
2019-04-16T09:20:34.755Z,15.17
2019-04-16T09:21:33.987Z,15.23
2019-04-16T09:22:47.855Z,15.06
2019-04-16T09:23:34.182Z,15.11
2019-04-16T09:24:34.275Z,15.15
2019-04-16T09:25:34.366Z,15.30
2019-04-16T09:26:34.463Z,15.46
2019-04-16T09:27:34.590Z,15.52
2019-04-16T09:28:34.649Z,15.66
2019-04-16T09:29:34.746Z,15.60
2019-04-16T09:30:34.841Z,15.61
2019-04-16T09:31:34.935Z,15.59
2019-04-16T09:32:35.032Z,15.72
2019-04-16T09:33:35.128Z,15.78
2019-04-16T09:34:35.688Z,15.92
2019-04-16T09:35:35.315Z,15.89
2019-04-16T09:36:35.408Z,15.86
2019-04-16T09:37:35.936Z,15.94
2019-04-16T09:38:35.595Z,15.75
2019-04-16T09:39:35.688Z,15.94
2019-04-16T09:40:35.880Z,15.93
2019-04-16T09:41:35.878Z,15.93
2019-04-16T09:42:35.977Z,16.06
2019-04-16T09:43:36.069Z,15.89
2019-04-16T09:44:36.188Z,15.92
2019-04-16T09:45:37.322Z,15.97
2019-04-16T09:46:52.186Z,16.06
2019-04-16T09:47:36.476Z,16.18
2019-04-16T09:48:36.573Z,16.30
2019-04-16T09:49:37.649Z,16.23
2019-04-16T09:50:39.688Z,16.22
2019-04-16T09:51:36.852Z,16.37
2019-04-16T09:52:36.946Z,16.53
2019-04-16T09:53:40.010Z,16.59
2019-04-16T09:54:37.130Z,16.71
2019-04-16T09:55:37.221Z,16.89
2019-04-16T09:56:37.319Z,16.86
2019-04-16T09:57:37.413Z,17.03
2019-04-16T09:58:38.704Z,16.85
2019-04-16T09:59:37.604Z,16.96
2019-04-16T10:00:37.700Z,17.04
2019-04-16T10:01:37.793Z,17.04
2019-04-16T10:02:37.890Z,17.15
2019-04-16T10:03:37.985Z,17.15
2019-04-16T10:04:38.084Z,17.23
2019-04-16T10:05:38.178Z,17.33
2019-04-16T10:06:38.286Z,17.43
2019-04-16T10:07:40.246Z,17.48
2019-04-16T10:08:38.467Z,17.30
2019-04-16T10:09:38.562Z,17.46
2019-04-16T10:10:38.692Z,17.54
2019-04-16T10:11:38.757Z,17.54
2019-04-16T10:12:38.865Z,17.55
2019-04-16T10:13:38.944Z,17.55
2019-04-16T10:14:39.041Z,17.57
2019-04-16T10:15:39.159Z,17.55
2019-04-16T10:16:39.238Z,17.71
2019-04-16T10:17:39.344Z,17.76
2019-04-16T10:18:39.460Z,17.89
2019-04-16T10:19:43.038Z,17.92
2019-04-16T10:20:40.457Z,17.91
2019-04-16T10:21:39.749Z,17.84
2019-04-16T10:22:39.838Z,17.73
2019-04-16T10:23:39.938Z,17.73
2019-04-16T10:24:40.008Z,17.87
2019-04-16T10:25:40.111Z,17.88
2019-04-16T10:26:40.207Z,17.85
2019-04-16T10:27:40.326Z,17.88
2019-04-16T10:28:40.412Z,17.94
2019-04-16T10:29:40.500Z,17.99
2019-04-16T10:30:40.592Z,18.00
2019-04-16T10:31:40.689Z,18.04
2019-04-16T10:32:40.801Z,18.10
2019-04-16T10:33:40.873Z,18.06
2019-04-16T10:34:40.970Z,18.03
2019-04-16T10:35:41.073Z,17.97
2019-04-16T10:36:41.177Z,17.74
2019-04-16T10:37:41.283Z,17.81
2019-04-16T10:38:41.388Z,17.95
2019-04-16T10:39:41.495Z,18.06
2019-04-16T10:40:41.584Z,18.18
2019-04-16T10:41:41.664Z,18.03
2019-04-16T10:42:41.773Z,17.97
2019-04-16T10:43:44.665Z,17.76
2019-04-16T10:44:42.105Z,17.81
2019-04-16T10:45:42.065Z,17.82
2019-04-16T10:46:42.148Z,17.92
2019-04-16T10:47:42.255Z,18.09
2019-04-16T10:48:42.341Z,18.13
2019-04-16T10:49:42.440Z,18.24
2019-04-16T10:50:42.537Z,18.43
2019-04-16T10:51:43.025Z,18.47
2019-04-16T10:52:42.735Z,18.64
2019-04-16T10:53:42.906Z,18.65
2019-04-16T10:54:43.175Z,18.72
2019-04-16T10:55:43.291Z,18.76
2019-04-16T10:56:43.113Z,18.91
2019-04-16T10:57:43.460Z,18.82
2019-04-16T10:58:43.305Z,18.84
2019-04-16T10:59:43.429Z,19.06
2019-04-16T11:00:43.500Z,18.91
2019-04-16T11:01:43.593Z,19.08
2019-04-16T11:02:43.728Z,19.02
2019-04-16T11:03:43.804Z,18.98
2019-04-16T11:04:44.012Z,19.10
2019-04-16T11:05:43.979Z,19.14
2019-04-16T11:06:44.083Z,18.98
2019-04-16T11:07:44.190Z,19.01
2019-04-16T11:08:44.271Z,19.13
2019-04-16T11:09:44.399Z,19.02
2019-04-16T11:10:44.464Z,18.98
2019-04-16T11:11:44.574Z,18.97
2019-04-16T11:12:44.951Z,19.05
2019-04-16T11:13:58.581Z,19.06
2019-04-16T11:14:44.850Z,19.15
2019-04-16T11:15:44.954Z,19.28
2019-04-16T11:16:45.048Z,19.10
2019-04-16T11:17:45.161Z,18.95
2019-04-16T11:18:45.414Z,19.10
2019-04-16T11:19:45.372Z,19.15
2019-04-16T11:20:45.449Z,19.06
2019-04-16T11:21:45.638Z,19.17
2019-04-16T11:22:45.688Z,19.15
2019-04-16T11:23:45.746Z,19.23
2019-04-16T11:24:45.874Z,19.13
2019-04-16T11:25:45.940Z,19.20
2019-04-16T11:26:46.035Z,18.98
2019-04-16T11:27:46.149Z,18.94
2019-04-16T11:28:46.237Z,19.05
2019-04-16T11:29:46.327Z,18.94
2019-04-16T11:30:48.774Z,18.94
2019-04-16T11:31:46.513Z,19.10
2019-04-16T11:32:46.616Z,19.23
2019-04-16T11:33:46.728Z,19.18
2019-04-16T11:34:46.826Z,19.18
2019-04-16T11:35:46.914Z,19.23
2019-04-16T11:36:46.990Z,19.21
2019-04-16T11:37:47.108Z,19.21
2019-04-16T11:38:47.210Z,19.29
2019-04-16T11:39:47.307Z,19.24
2019-04-16T11:40:47.490Z,19.28
2019-04-16T11:41:47.488Z,19.33
2019-04-16T11:42:47.588Z,19.35
2019-04-16T11:43:47.686Z,19.35
2019-04-16T11:44:50.257Z,19.39
2019-04-16T11:45:47.882Z,19.25
2019-04-16T11:46:47.986Z,19.33
2019-04-16T11:47:48.516Z,19.35
2019-04-16T11:48:50.187Z,19.36
2019-04-16T11:49:48.318Z,19.42
2019-04-16T11:50:48.382Z,19.46
2019-04-16T11:51:48.500Z,19.51
2019-04-16T11:52:48.575Z,19.57
2019-04-16T11:53:48.709Z,19.51
2019-04-16T11:54:48.771Z,19.42
2019-04-16T11:55:48.865Z,19.33
2019-04-16T11:56:48.997Z,19.36
2019-04-16T11:57:49.060Z,19.33
2019-04-16T11:58:49.160Z,19.42
2019-04-16T11:59:49.250Z,19.68
2019-04-16T12:00:49.409Z,19.60
2019-04-16T12:01:49.445Z,19.75
2019-04-16T12:02:49.569Z,19.80
2019-04-16T12:03:49.643Z,19.86
2019-04-16T12:04:49.769Z,20.03
2019-04-16T12:05:49.857Z,19.97
2019-04-16T12:06:49.977Z,20.08
2019-04-16T12:07:50.067Z,19.93
2019-04-16T12:08:50.150Z,19.87
2019-04-16T12:09:50.256Z,19.93
2019-04-16T12:10:50.345Z,19.94
2019-04-16T12:11:50.430Z,19.94
2019-04-16T12:12:50.517Z,20.02
2019-04-16T12:13:50.646Z,20.00
2019-04-16T12:14:50.747Z,19.97
2019-04-16T12:15:50.837Z,20.00
2019-04-16T12:16:50.908Z,19.94
2019-04-16T12:17:51.021Z,20.12
2019-04-16T12:18:51.098Z,20.12
2019-04-16T12:19:51.201Z,20.05
2019-04-16T12:20:51.299Z,20.13
2019-04-16T12:21:51.390Z,20.09
2019-04-16T12:22:51.482Z,20.06
2019-04-16T12:23:51.619Z,20.13
2019-04-16T12:24:51.706Z,20.09
2019-04-16T12:25:51.812Z,20.24
2019-04-16T12:26:51.988Z,20.16
2019-04-16T12:27:51.977Z,20.13
2019-04-16T12:28:52.079Z,20.06
2019-04-16T12:29:52.172Z,20.10
2019-04-16T12:30:52.285Z,20.10
2019-04-16T12:31:52.371Z,20.24
2019-04-16T12:32:52.499Z,20.18
2019-04-16T12:33:52.564Z,20.12
2019-04-16T12:34:52.771Z,20.13
2019-04-16T12:35:52.760Z,20.25
2019-04-16T12:36:52.860Z,20.03
2019-04-16T12:37:52.958Z,20.16
2019-04-16T12:38:53.043Z,20.16
2019-04-16T12:39:53.154Z,20.15
2019-04-16T12:40:53.271Z,20.12
2019-04-16T12:41:53.343Z,20.20
2019-04-16T12:42:53.482Z,20.23
2019-04-16T12:43:53.541Z,20.24
2019-04-16T12:44:53.646Z,20.24
2019-04-16T12:45:53.864Z,20.25
2019-04-16T12:46:53.886Z,20.27
2019-04-16T12:47:53.935Z,20.31
2019-04-16T12:48:54.033Z,20.41
2019-04-16T12:49:54.132Z,20.23
2019-04-16T12:50:54.238Z,20.21
2019-04-16T12:51:54.390Z,20.24
2019-04-16T12:52:55.078Z,20.20
2019-04-16T12:53:54.541Z,20.18
2019-04-16T12:54:58.328Z,20.05
2019-04-16T12:55:54.734Z,20.15
2019-04-16T12:56:54.881Z,20.20
2019-04-16T12:57:58.700Z,20.23
2019-04-16T12:58:55.064Z,20.21
2019-04-16T12:59:55.676Z,20.09
2019-04-16T13:00:55.259Z,20.21
2019-04-16T13:01:55.356Z,20.25
2019-04-16T13:02:55.453Z,20.25
2019-04-16T13:03:55.552Z,20.27
2019-04-16T13:04:55.649Z,20.28
2019-04-16T13:05:55.768Z,20.20